KCHO Airport Information

Runway Information
Runway 03 Length 6001 ft width 150 ft
Elevation 639 ft Threshold 0 ft Heading 22
Runway 21 Length 6001 ft Width 150 ft
Elevation 620 ft Threshold 0 ft Heading 202
Airport Frequencies
Type A/D Name POTOMAC AP Frequency 132.85 MHZ
Type ASOS Name ASOS Frequency 118.425 MHZ
Type ATIS Name ATIS Frequency 118.425 MHZ
Type CTAF Name CTAF Frequency 124.5 MHZ
Type GND Name GND Frequency 121.9 MHZ
Type RDO Name LEESBURG R Frequency 122.2 MHZ
Type TWR Name TWR Frequency 124.5 MHZ
Type UNIC Name UNICOM Frequency 122.95 MHZ
Airport Navaids
Type NDB Name Azalea Park Frequency 336 KHZ
Airport Weather Information & NOTAM
ADDS - METARS form results

(0152 UTC 16 January 2021)
Data provider http://aviationweather.gov/metar/data/
 
METAR text: KCHO 160115Z 25003KT 3/4SM BR VV001 04/03 A2969 RMK AO2 T00390028
Conditions at: KCHO (CHARLOTTESVILLE , VA, US) observed 0115 UTC 16 January 2021
Temperature: 3.9°C (39°F)
Dewpoint: 2.8°C (37°F) [RH = 93%]
Pressure (altimeter): 29.69 inches Hg (1005.5 mb)
Winds: from the WSW (250 degrees) at 3 MPH (3 knots; 1.5 m/s)
Visibility: 0.75 miles (1.21 km)
Ceiling: indefinite ceiling with vertical visibility of 100 feet AGL
Clouds: obscured sky
Weather: BR  (mist)

METAR text: KCHO 160110Z 26003KT 1 1/2SM BR CLR 04/03 A2969 RMK AO2 T00390028
Conditions at: KCHO (CHARLOTTESVILLE , VA, US) observed 0110 UTC 16 January 2021
Temperature: 3.9°C (39°F)
Dewpoint: 2.8°C (37°F) [RH = 93%]
Pressure (altimeter): 29.69 inches Hg (1005.5 mb)
Winds: from the W (260 degrees) at 3 MPH (3 knots; 1.5 m/s)
Visibility: 1.50 miles (2.41 km)
Ceiling: at least 12,000 feet AGL
Clouds: sky clear below 12,000 feet AGL
Weather: BR  (mist)

METAR text: KCHO 160101Z 00000KT 3SM BR CLR 04/03 A2969 RMK AO2 T00440033
Conditions at: KCHO (CHARLOTTESVILLE , VA, US) observed 0101 UTC 16 January 2021
Temperature: 4.4°C (40°F)
Dewpoint: 3.3°C (38°F) [RH = 93%]
Pressure (altimeter): 29.69 inches Hg (1005.5 mb)
Winds: calm
Visibility: 3 miles ( 5 km)
Ceiling: at least 12,000 feet AGL
Clouds: sky clear below 12,000 feet AGL
Weather: BR  (mist)

METAR text: KCHO 160053Z 00000KT 1 1/2SM BR CLR 04/03 A2969 RMK AO2 RAE2354 SLP056 P0000 T00440033
Conditions at: KCHO (CHARLOTTESVILLE , VA, US) observed 0053 UTC 16 January 2021
Temperature: 4.4°C (40°F)
Dewpoint: 3.3°C (38°F) [RH = 93%]
Pressure (altimeter): 29.69 inches Hg (1005.5 mb)
[Sea-level pressure: 1005.6 mb]
Winds: calm
Visibility: 1.50 miles (2.41 km)
Ceiling: at least 12,000 feet AGL
Clouds: sky clear below 12,000 feet AGL
Weather: BR  (mist)

Forecast for: KCHO (CHARLOTTESVILLE , VA, US)
Text: KCHO 160130Z 1602/1624 00000KT 3SM BR SCT030 BKN110
Forecast period: 0200 to 0400 UTC 16 January 2021
Forecast type: FROM: standard forecast or significant change
Winds: calm
Visibility: 3 miles (5 km)
Ceiling: 11000 feet AGL
Clouds: scattered clouds at 3000 feet AGL
broken clouds at 11000 feet AGL
Weather: BR  (mist)
Text: TEMPO 1602/1603 3/4SM BR BKN001
Forecast period: 0200 to 0300 UTC 16 January 2021
Forecast type: TEMPORARY: The following changes expected for less than half the time period
Visibility: 0.75 miles (1.21 km)
Ceiling: 100 feet AGL
Clouds: broken clouds at 100 feet AGL
Weather: BR  (mist)
Text: FM160400 00000KT 5SM BR BKN010
Forecast period: 0400 to 1200 UTC 16 January 2021
Forecast type: FROM: standard forecast or significant change
Winds: calm
Visibility: 5 miles (8 km)
Ceiling: 1000 feet AGL
Clouds: broken clouds at 1000 feet AGL
Weather: BR  (mist)
Text: FM161200 23004KT P6SM BKN050
Forecast period: 1200 to 2300 UTC 16 January 2021
Forecast type: FROM: standard forecast or significant change
Winds: from the SW (230 degrees) at 5 MPH (4 knots; 2.1 m/s)
Visibility: 6 or more miles (10+ km)
Ceiling: 5000 feet AGL
Clouds: broken clouds at 5000 feet AGL
Weather: no significant weather forecast for this period
Text: FM162300 25006KT P6SM SCT090
Forecast period: 2300 UTC 16 January 2021 to 0000 UTC 17 January 2021
Forecast type: FROM: standard forecast or significant change
Winds: from the WSW (250 degrees) at 7 MPH (6 knots; 3.1 m/s)
Visibility: 6 or more miles (10+ km)
Ceiling: at least 12,000 feet AGL
Clouds: scattered clouds at 9000 feet AGL
Weather: no significant weather forecast for this period